sensor_id;sensor_type;location;lat;lon;timestamp;P1;durP1;ratioP1;P2;durP2;ratioP2
20480;SDS011;10399;50.754;3.366;2022-10-16T00:01:26;3.58;;;1.10;;
20480;SDS011;10399;50.754;3.366;2022-10-16T00:03:56;1.35;;;1.10;;
20480;SDS011;10399;50.754;3.366;2022-10-16T00:06:24;1.20;;;0.98;;
20480;SDS011;10399;50.754;3.366;2022-10-16T00:08:52;1.73;;;1.08;;
20480;SDS011;10399;50.754;3.366;2022-10-16T00:11:20;7.32;;;1.40;;
20480;SDS011;10399;50.754;3.366;2022-10-16T00:13:57;2.20;;;1.05;;
20480;SDS011;10399;50.754;3.366;2022-10-16T00:16:25;4.18;;;1.70;;
20480;SDS011;10399;50.754;3.366;2022-10-16T00:18:53;1.50;;;0.90;;
20480;SDS011;10399;50.754;3.366;2022-10-16T00:21:22;1.92;;;1.08;;
20480;SDS011;10399;50.754;3.366;2022-10-16T00:23:56;3.15;;;1.10;;
20480;SDS011;10399;50.754;3.366;2022-10-16T00:26:29;2.42;;;1.10;;
20480;SDS011;10399;50.754;3.366;2022-10-16T00:28:58;2.15;;;1.00;;
20480;SDS011;10399;50.754;3.366;2022-10-16T00:31:25;2.28;;;1.20;;
20480;SDS011;10399;50.754;3.366;2022-10-16T00:33:53;2.58;;;1.25;;
20480;SDS011;10399;50.754;3.366;2022-10-16T00:36:21;1.38;;;0.98;;
20480;SDS011;10399;50.754;3.366;2022-10-16T00:38:50;2.03;;;1.20;;
20480;SDS011;10399;50.754;3.366;2022-10-16T00:41:22;1.50;;;1.20;;
20480;SDS011;10399;50.754;3.366;2022-10-16T00:43:51;4.78;;;1.90;;
20480;SDS011;10399;50.754;3.366;2022-10-16T00:46:25;1.65;;;1.08;;
20480;SDS011;10399;50.754;3.366;2022-10-16T00:51:30;3.45;;;1.30;;
20480;SDS011;10399;50.754;3.366;2022-10-16T00:54:03;1.45;;;1.15;;
20480;SDS011;10399;50.754;3.366;2022-10-16T00:56:33;2.55;;;1.15;;
20480;SDS011;10399;50.754;3.366;2022-10-16T00:59:06;3.15;;;1.27;;
20480;SDS011;10399;50.754;3.366;2022-10-16T01:01:46;3.22;;;1.23;;
20480;SDS011;10399;50.754;3.366;2022-10-16T01:04:14;2.70;;;1.20;;
20480;SDS011;10399;50.754;3.366;2022-10-16T01:28:24;2.20;;;0.90;;
20480;SDS011;10399;50.754;3.366;2022-10-16T01:30:58;2.40;;;0.90;;
20480;SDS011;10399;50.754;3.366;2022-10-16T01:33:31;2.97;;;1.00;;
20480;SDS011;10399;50.754;3.366;2022-10-16T01:36:17;2.90;;;1.30;;
20480;SDS011;10399;50.754;3.366;2022-10-16T01:38:49;2.70;;;1.20;;
20480;SDS011;10399;50.754;3.366;2022-10-16T01:41:21;2.70;;;1.20;;
20480;SDS011;10399;50.754;3.366;2022-10-16T01:46:28;3.90;;;1.17;;
20480;SDS011;10399;50.754;3.366;2022-10-16T01:48:59;2.72;;;1.40;;
20480;SDS011;10399;50.754;3.366;2022-10-16T01:51:28;3.72;;;1.10;;
20480;SDS011;10399;50.754;3.366;2022-10-16T01:53:56;8.52;;;1.50;;
20480;SDS011;10399;50.754;3.366;2022-10-16T01:56:27;3.67;;;1.15;;
20480;SDS011;10399;50.754;3.366;2022-10-16T01:58:58;2.25;;;1.20;;
20480;SDS011;10399;50.754;3.366;2022-10-16T02:01:36;2.33;;;1.00;;
20480;SDS011;10399;50.754;3.366;2022-10-16T02:04:09;2.20;;;1.00;;
20480;SDS011;10399;50.754;3.366;2022-10-16T02:06:55;3.25;;;1.40;;
20480;SDS011;10399;50.754;3.366;2022-10-16T02:09:23;2.97;;;1.50;;
20480;SDS011;10399;50.754;3.366;2022-10-16T02:11:51;3.90;;;1.20;;
20480;SDS011;10399;50.754;3.366;2022-10-16T02:14:21;7.30;;;1.30;;
20480;SDS011;10399;50.754;3.366;2022-10-16T02:16:50;1.65;;;1.25;;
20480;SDS011;10399;50.754;3.366;2022-10-16T02:19:17;3.03;;;1.30;;
20480;SDS011;10399;50.754;3.366;2022-10-16T02:22:02;3.05;;;1.27;;
20480;SDS011;10399;50.754;3.366;2022-10-16T02:30:34;3.72;;;1.30;;
20480;SDS011;10399;50.754;3.366;2022-10-16T02:33:06;3.25;;;1.17;;
20480;SDS011;10399;50.754;3.366;2022-10-16T02:35:36;3.75;;;1.20;;
20480;SDS011;10399;50.754;3.366;2022-10-16T02:38:04;1.48;;;1.25;;
20480;SDS011;10399;50.754;3.366;2022-10-16T02:40:33;5.72;;;1.35;;
20480;SDS011;10399;50.754;3.366;2022-10-16T02:43:02;3.38;;;1.50;;
20480;SDS011;10399;50.754;3.366;2022-10-16T02:45:31;5.45;;;1.13;;
20480;SDS011;10399;50.754;3.366;2022-10-16T02:47:58;5.07;;;1.63;;
20480;SDS011;10399;50.754;3.366;2022-10-16T02:50:25;2.28;;;1.27;;
20480;SDS011;10399;50.754;3.366;2022-10-16T02:52:52;4.85;;;1.45;;
20480;SDS011;10399;50.754;3.366;2022-10-16T02:55:19;4.40;;;1.85;;
20480;SDS011;10399;50.754;3.366;2022-10-16T02:57:46;3.45;;;1.60;;
20480;SDS011;10399;50.754;3.366;2022-10-16T03:00:15;6.18;;;1.30;;
20480;SDS011;10399;50.754;3.366;2022-10-16T03:02:43;2.97;;;1.33;;
20480;SDS011;10399;50.754;3.366;2022-10-16T03:05:11;4.35;;;1.38;;
20480;SDS011;10399;50.754;3.366;2022-10-16T03:07:38;3.38;;;1.52;;
20480;SDS011;10399;50.754;3.366;2022-10-16T03:10:05;5.15;;;1.50;;
20480;SDS011;10399;50.754;3.366;2022-10-16T03:12:33;5.22;;;1.48;;
20480;SDS011;10399;50.754;3.366;2022-10-16T03:15:00;4.47;;;1.80;;
20480;SDS011;10399;50.754;3.366;2022-10-16T03:17:27;5.25;;;1.60;;
20480;SDS011;10399;50.754;3.366;2022-10-16T03:19:54;1.83;;;1.52;;
20480;SDS011;10399;50.754;3.366;2022-10-16T03:22:21;4.50;;;1.70;;
20480;SDS011;10399;50.754;3.366;2022-10-16T03:24:48;3.72;;;1.98;;
20480;SDS011;10399;50.754;3.366;2022-10-16T03:27:15;3.17;;;1.77;;
20480;SDS011;10399;50.754;3.366;2022-10-16T03:29:42;2.15;;;1.40;;
20480;SDS011;10399;50.754;3.366;2022-10-16T03:32:09;4.32;;;1.85;;
20480;SDS011;10399;50.754;3.366;2022-10-16T03:34:36;4.10;;;1.80;;
20480;SDS011;10399;50.754;3.366;2022-10-16T03:37:03;5.85;;;2.25;;
20480;SDS011;10399;50.754;3.366;2022-10-16T03:39:31;7.30;;;1.77;;
20480;SDS011;10399;50.754;3.366;2022-10-16T03:41:58;5.43;;;2.03;;
20480;SDS011;10399;50.754;3.366;2022-10-16T03:44:25;4.82;;;1.70;;
20480;SDS011;10399;50.754;3.366;2022-10-16T03:46:52;2.03;;;1.48;;
20480;SDS011;10399;50.754;3.366;2022-10-16T03:49:19;7.35;;;1.92;;
20480;SDS011;10399;50.754;3.366;2022-10-16T03:51:46;5.13;;;1.88;;
20480;SDS011;10399;50.754;3.366;2022-10-16T03:54:13;3.88;;;1.50;;
20480;SDS011;10399;50.754;3.366;2022-10-16T03:56:40;4.22;;;1.65;;
20480;SDS011;10399;50.754;3.366;2022-10-16T03:59:07;3.95;;;1.52;;
20480;SDS011;10399;50.754;3.366;2022-10-16T04:01:33;5.05;;;1.55;;
20480;SDS011;10399;50.754;3.366;2022-10-16T04:04:00;4.35;;;1.60;;
20480;SDS011;10399;50.754;3.366;2022-10-16T04:06:27;3.38;;;1.80;;
20480;SDS011;10399;50.754;3.366;2022-10-16T04:08:54;4.15;;;1.70;;
20480;SDS011;10399;50.754;3.366;2022-10-16T04:11:21;5.68;;;1.70;;
20480;SDS011;10399;50.754;3.366;2022-10-16T04:13:48;2.03;;;1.60;;
20480;SDS011;10399;50.754;3.366;2022-10-16T04:16:15;4.53;;;1.80;;
20480;SDS011;10399;50.754;3.366;2022-10-16T04:18:42;3.72;;;1.50;;
20480;SDS011;10399;50.754;3.366;2022-10-16T04:21:09;4.13;;;1.60;;
20480;SDS011;10399;50.754;3.366;2022-10-16T04:23:36;4.43;;;1.60;;
20480;SDS011;10399;50.754;3.366;2022-10-16T04:26:03;4.10;;;1.90;;
20480;SDS011;10399;50.754;3.366;2022-10-16T04:28:30;4.22;;;1.73;;
20480;SDS011;10399;50.754;3.366;2022-10-16T04:30:58;3.38;;;1.63;;
20480;SDS011;10399;50.754;3.366;2022-10-16T04:33:25;5.63;;;1.95;;
20480;SDS011;10399;50.754;3.366;2022-10-16T04:35:56;6.32;;;1.75;;
20480;SDS011;10399;50.754;3.366;2022-10-16T04:38:26;7.72;;;1.90;;
20480;SDS011;10399;50.754;3.366;2022-10-16T04:40:54;3.60;;;1.80;;
20480;SDS011;10399;50.754;3.366;2022-10-16T04:43:21;3.95;;;1.90;;
20480;SDS011;10399;50.754;3.366;2022-10-16T04:45:49;2.88;;;1.60;;
20480;SDS011;10399;50.754;3.366;2022-10-16T04:48:19;4.00;;;1.80;;
20480;SDS011;10399;50.754;3.366;2022-10-16T04:50:46;4.93;;;1.30;;
20480;SDS011;10399;50.754;3.366;2022-10-16T04:53:20;4.22;;;1.83;;
20480;SDS011;10399;50.754;3.366;2022-10-16T04:55:47;6.03;;;1.92;;
20480;SDS011;10399;50.754;3.366;2022-10-16T04:58:14;4.70;;;1.45;;
20480;SDS011;10399;50.754;3.366;2022-10-16T05:00:41;2.20;;;1.50;;
20480;SDS011;10399;50.754;3.366;2022-10-16T05:03:09;3.70;;;1.50;;
20480;SDS011;10399;50.754;3.366;2022-10-16T05:05:36;3.10;;;1.60;;
20480;SDS011;10399;50.754;3.366;2022-10-16T05:08:08;3.63;;;1.70;;
20480;SDS011;10399;50.754;3.366;2022-10-16T05:10:35;3.42;;;1.90;;
20480;SDS011;10399;50.754;3.366;2022-10-16T05:13:02;7.22;;;1.55;;
20480;SDS011;10399;50.754;3.366;2022-10-16T05:15:29;2.90;;;1.50;;
20480;SDS011;10399;50.754;3.366;2022-10-16T05:17:57;4.20;;;1.35;;
20480;SDS011;10399;50.754;3.366;2022-10-16T05:20:24;2.10;;;1.35;;
20480;SDS011;10399;50.754;3.366;2022-10-16T05:22:51;6.00;;;1.55;;
20480;SDS011;10399;50.754;3.366;2022-10-16T05:25:18;3.95;;;1.83;;
20480;SDS011;10399;50.754;3.366;2022-10-16T05:27:48;3.95;;;1.90;;
20480;SDS011;10399;50.754;3.366;2022-10-16T05:30:16;6.18;;;1.98;;
20480;SDS011;10399;50.754;3.366;2022-10-16T05:32:50;6.40;;;2.10;;
20480;SDS011;10399;50.754;3.366;2022-10-16T05:35:18;8.55;;;2.40;;
20480;SDS011;10399;50.754;3.366;2022-10-16T05:37:46;2.55;;;1.90;;
20480;SDS011;10399;50.754;3.366;2022-10-16T05:40:13;8.32;;;2.30;;
20480;SDS011;10399;50.754;3.366;2022-10-16T05:42:41;6.70;;;1.92;;
20480;SDS011;10399;50.754;3.366;2022-10-16T05:45:09;3.97;;;1.83;;
20480;SDS011;10399;50.754;3.366;2022-10-16T05:47:37;6.80;;;2.00;;
20480;SDS011;10399;50.754;3.366;2022-10-16T05:50:05;4.20;;;1.65;;
20480;SDS011;10399;50.754;3.366;2022-10-16T05:52:33;3.78;;;1.50;;
20480;SDS011;10399;50.754;3.366;2022-10-16T05:54:59;4.43;;;2.03;;
20480;SDS011;10399;50.754;3.366;2022-10-16T05:57:26;3.92;;;1.75;;
20480;SDS011;10399;50.754;3.366;2022-10-16T05:59:54;5.20;;;1.83;;
20480;SDS011;10399;50.754;3.366;2022-10-16T06:02:22;5.75;;;1.52;;
20480;SDS011;10399;50.754;3.366;2022-10-16T06:04:48;6.05;;;2.42;;
20480;SDS011;10399;50.754;3.366;2022-10-16T06:07:17;5.50;;;2.65;;
20480;SDS011;10399;50.754;3.366;2022-10-16T06:09:47;3.95;;;1.98;;
20480;SDS011;10399;50.754;3.366;2022-10-16T06:12:18;4.85;;;2.10;;
20480;SDS011;10399;50.754;3.366;2022-10-16T06:14:45;8.68;;;1.92;;
20480;SDS011;10399;50.754;3.366;2022-10-16T06:17:13;3.80;;;1.65;;
20480;SDS011;10399;50.754;3.366;2022-10-16T06:19:41;6.05;;;1.70;;
20480;SDS011;10399;50.754;3.366;2022-10-16T06:22:08;3.53;;;1.85;;
20480;SDS011;10399;50.754;3.366;2022-10-16T06:24:35;4.72;;;1.90;;
20480;SDS011;10399;50.754;3.366;2022-10-16T06:27:03;10.20;;;2.70;;
20480;SDS011;10399;50.754;3.366;2022-10-16T06:29:30;4.03;;;2.20;;
20480;SDS011;10399;50.754;3.366;2022-10-16T06:31:57;7.00;;;2.20;;
20480;SDS011;10399;50.754;3.366;2022-10-16T06:34:24;2.45;;;2.17;;
20480;SDS011;10399;50.754;3.366;2022-10-16T06:36:51;2.00;;;1.55;;
20480;SDS011;10399;50.754;3.366;2022-10-16T06:39:18;3.58;;;1.88;;
20480;SDS011;10399;50.754;3.366;2022-10-16T06:41:45;4.55;;;2.20;;
20480;SDS011;10399;50.754;3.366;2022-10-16T06:44:12;3.45;;;1.77;;
20480;SDS011;10399;50.754;3.366;2022-10-16T06:46:39;2.97;;;1.90;;
20480;SDS011;10399;50.754;3.366;2022-10-16T06:49:06;3.45;;;1.55;;
20480;SDS011;10399;50.754;3.366;2022-10-16T06:51:34;5.88;;;1.75;;
20480;SDS011;10399;50.754;3.366;2022-10-16T06:54:08;2.85;;;1.70;;
20480;SDS011;10399;50.754;3.366;2022-10-16T06:56:35;5.40;;;2.08;;
20480;SDS011;10399;50.754;3.366;2022-10-16T06:59:02;4.03;;;1.70;;
20480;SDS011;10399;50.754;3.366;2022-10-16T07:01:29;4.07;;;2.20;;
20480;SDS011;10399;50.754;3.366;2022-10-16T07:03:58;6.45;;;1.88;;
20480;SDS011;10399;50.754;3.366;2022-10-16T07:06:26;2.25;;;1.85;;
20480;SDS011;10399;50.754;3.366;2022-10-16T07:08:54;6.63;;;1.63;;
20480;SDS011;10399;50.754;3.366;2022-10-16T07:11:21;9.70;;;1.90;;
20480;SDS011;10399;50.754;3.366;2022-10-16T07:13:50;10.82;;;2.45;;
20480;SDS011;10399;50.754;3.366;2022-10-16T07:16:25;4.78;;;2.03;;
20480;SDS011;10399;50.754;3.366;2022-10-16T07:18:57;5.25;;;1.80;;
20480;SDS011;10399;50.754;3.366;2022-10-16T07:21:31;3.72;;;2.30;;
20480;SDS011;10399;50.754;3.366;2022-10-16T07:24:03;5.30;;;2.00;;
20480;SDS011;10399;50.754;3.366;2022-10-16T07:26:33;7.05;;;2.00;;
20480;SDS011;10399;50.754;3.366;2022-10-16T07:29:01;3.80;;;2.00;;
20480;SDS011;10399;50.754;3.366;2022-10-16T07:31:30;2.60;;;1.75;;
20480;SDS011;10399;50.754;3.366;2022-10-16T07:33:58;6.72;;;1.70;;
20480;SDS011;10399;50.754;3.366;2022-10-16T07:36:26;4.18;;;1.63;;
20480;SDS011;10399;50.754;3.366;2022-10-16T07:38:54;4.13;;;1.52;;
20480;SDS011;10399;50.754;3.366;2022-10-16T07:41:25;5.95;;;2.00;;
20480;SDS011;10399;50.754;3.366;2022-10-16T07:43:52;4.85;;;1.85;;
20480;SDS011;10399;50.754;3.366;2022-10-16T07:46:21;3.10;;;1.65;;
20480;SDS011;10399;50.754;3.366;2022-10-16T07:48:49;10.25;;;1.90;;
20480;SDS011;10399;50.754;3.366;2022-10-16T07:51:18;6.07;;;2.00;;
20480;SDS011;10399;50.754;3.366;2022-10-16T07:53:46;4.15;;;1.60;;
20480;SDS011;10399;50.754;3.366;2022-10-16T07:56:15;9.25;;;1.88;;
20480;SDS011;10399;50.754;3.366;2022-10-16T07:58:44;7.47;;;1.90;;
20480;SDS011;10399;50.754;3.366;2022-10-16T08:01:12;5.97;;;2.25;;
20480;SDS011;10399;50.754;3.366;2022-10-16T08:03:41;5.90;;;1.48;;
20480;SDS011;10399;50.754;3.366;2022-10-16T08:06:14;3.08;;;1.67;;
20480;SDS011;10399;50.754;3.366;2022-10-16T08:08:42;3.28;;;1.60;;
20480;SDS011;10399;50.754;3.366;2022-10-16T08:11:09;8.02;;;1.65;;
20480;SDS011;10399;50.754;3.366;2022-10-16T08:13:36;4.28;;;1.50;;
20480;SDS011;10399;50.754;3.366;2022-10-16T08:16:04;3.97;;;1.38;;
20480;SDS011;10399;50.754;3.366;2022-10-16T08:18:34;9.70;;;1.50;;
20480;SDS011;10399;50.754;3.366;2022-10-16T08:21:03;6.63;;;1.80;;
20480;SDS011;10399;50.754;3.366;2022-10-16T08:23:31;3.17;;;1.40;;
20480;SDS011;10399;50.754;3.366;2022-10-16T08:26:05;8.05;;;1.75;;
20480;SDS011;10399;50.754;3.366;2022-10-16T08:28:34;5.68;;;1.80;;
20480;SDS011;10399;50.754;3.366;2022-10-16T08:31:12;4.38;;;1.50;;
20480;SDS011;10399;50.754;3.366;2022-10-16T08:33:43;6.72;;;1.50;;
20480;SDS011;10399;50.754;3.366;2022-10-16T08:36:13;4.60;;;2.00;;
20480;SDS011;10399;50.754;3.366;2022-10-16T08:38:41;6.05;;;1.40;;
20480;SDS011;10399;50.754;3.366;2022-10-16T08:48:59;4.65;;;1.60;;
20480;SDS011;10399;50.754;3.366;2022-10-16T08:51:32;5.20;;;1.70;;
20480;SDS011;10399;50.754;3.366;2022-10-16T08:56:56;2.75;;;1.30;;
20480;SDS011;10399;50.754;3.366;2022-10-16T08:59:33;6.22;;;1.73;;
20480;SDS011;10399;50.754;3.366;2022-10-16T09:02:00;9.77;;;1.90;;
20480;SDS011;10399;50.754;3.366;2022-10-16T09:10:11;12.20;;;5.57;;
20480;SDS011;10399;50.754;3.366;2022-10-16T09:13:09;9.50;;;3.38;;
20480;SDS011;10399;50.754;3.366;2022-10-16T09:16:15;8.38;;;1.98;;
20480;SDS011;10399;50.754;3.366;2022-10-16T09:19:05;4.95;;;1.48;;
20480;SDS011;10399;50.754;3.366;2022-10-16T09:21:44;6.43;;;1.83;;
20480;SDS011;10399;50.754;3.366;2022-10-16T09:24:13;6.47;;;2.08;;
20480;SDS011;10399;50.754;3.366;2022-10-16T09:26:45;10.48;;;3.20;;
20480;SDS011;10399;50.754;3.366;2022-10-16T09:29:16;6.07;;;1.90;;
20480;SDS011;10399;50.754;3.366;2022-10-16T09:31:52;4.82;;;1.60;;
20480;SDS011;10399;50.754;3.366;2022-10-16T09:34:24;5.05;;;1.75;;
20480;SDS011;10399;50.754;3.366;2022-10-16T09:36:57;9.40;;;2.05;;
20480;SDS011;10399;50.754;3.366;2022-10-16T09:39:26;5.28;;;1.73;;
20480;SDS011;10399;50.754;3.366;2022-10-16T09:41:53;5.45;;;1.25;;
20480;SDS011;10399;50.754;3.366;2022-10-16T09:44:26;4.15;;;1.42;;
20480;SDS011;10399;50.754;3.366;2022-10-16T09:47:05;4.10;;;1.10;;
20480;SDS011;10399;50.754;3.366;2022-10-16T09:49:50;5.45;;;1.30;;
20480;SDS011;10399;50.754;3.366;2022-10-16T09:52:28;4.60;;;1.35;;
20480;SDS011;10399;50.754;3.366;2022-10-16T09:54:57;9.18;;;1.90;;
20480;SDS011;10399;50.754;3.366;2022-10-16T09:57:26;5.63;;;1.27;;
20480;SDS011;10399;50.754;3.366;2022-10-16T09:59:55;4.75;;;1.65;;
20480;SDS011;10399;50.754;3.366;2022-10-16T10:02:30;5.93;;;1.48;;
20480;SDS011;10399;50.754;3.366;2022-10-16T10:05:02;8.00;;;1.60;;
20480;SDS011;10399;50.754;3.366;2022-10-16T10:07:35;7.28;;;1.52;;
20480;SDS011;10399;50.754;3.366;2022-10-16T10:10:22;7.80;;;1.42;;
20480;SDS011;10399;50.754;3.366;2022-10-16T10:12:52;5.65;;;1.50;;
20480;SDS011;10399;50.754;3.366;2022-10-16T10:15:19;4.35;;;1.27;;
20480;SDS011;10399;50.754;3.366;2022-10-16T10:17:50;7.00;;;1.50;;
20480;SDS011;10399;50.754;3.366;2022-10-16T10:23:01;5.68;;;1.35;;
20480;SDS011;10399;50.754;3.366;2022-10-16T10:36:47;10.27;;;1.73;;
20480;SDS011;10399;50.754;3.366;2022-10-16T10:39:36;4.15;;;1.58;;
20480;SDS011;10399;50.754;3.366;2022-10-16T10:51:13;6.88;;;1.35;;
20480;SDS011;10399;50.754;3.366;2022-10-16T10:54:11;10.30;;;1.60;;
20480;SDS011;10399;50.754;3.366;2022-10-16T10:56:50;5.50;;;1.10;;
20480;SDS011;10399;50.754;3.366;2022-10-16T10:59:28;5.00;;;1.40;;
20480;SDS011;10399;50.754;3.366;2022-10-16T11:02:09;3.88;;;1.52;;
20480;SDS011;10399;50.754;3.366;2022-10-16T11:07:28;4.43;;;1.40;;
20480;SDS011;10399;50.754;3.366;2022-10-16T11:10:05;5.30;;;1.60;;
20480;SDS011;10399;50.754;3.366;2022-10-16T11:12:55;7.30;;;1.15;;
20480;SDS011;10399;50.754;3.366;2022-10-16T11:15:32;6.07;;;1.92;;
20480;SDS011;10399;50.754;3.366;2022-10-16T11:18:05;6.70;;;1.52;;
20480;SDS011;10399;50.754;3.366;2022-10-16T11:20:34;4.75;;;1.17;;
20480;SDS011;10399;50.754;3.366;2022-10-16T11:23:16;4.80;;;1.38;;
20480;SDS011;10399;50.754;3.366;2022-10-16T11:25:48;3.58;;;1.00;;
20480;SDS011;10399;50.754;3.366;2022-10-16T11:30:58;9.48;;;1.10;;
20480;SDS011;10399;50.754;3.366;2022-10-16T11:44:09;3.58;;;1.15;;
20480;SDS011;10399;50.754;3.366;2022-10-16T11:46:53;7.28;;;1.58;;
20480;SDS011;10399;50.754;3.366;2022-10-16T11:49:52;4.88;;;1.35;;
20480;SDS011;10399;50.754;3.366;2022-10-16T11:55:14;6.93;;;0.95;;
20480;SDS011;10399;50.754;3.366;2022-10-16T11:57:57;3.00;;;0.77;;
20480;SDS011;10399;50.754;3.366;2022-10-16T12:09:20;3.05;;;0.82;;
20480;SDS011;10399;50.754;3.366;2022-10-16T12:11:51;2.47;;;0.70;;
20480;SDS011;10399;50.754;3.366;2022-10-16T12:17:27;4.57;;;0.82;;
20480;SDS011;10399;50.754;3.366;2022-10-16T12:22:48;1.88;;;0.98;;
20480;SDS011;10399;50.754;3.366;2022-10-16T12:25:19;5.75;;;0.95;;
20480;SDS011;10399;50.754;3.366;2022-10-16T12:27:55;4.05;;;1.08;;
20480;SDS011;10399;50.754;3.366;2022-10-16T12:31:02;2.63;;;1.10;;
20480;SDS011;10399;50.754;3.366;2022-10-16T12:33:32;4.97;;;1.13;;
20480;SDS011;10399;50.754;3.366;2022-10-16T12:36:02;4.25;;;1.25;;
20480;SDS011;10399;50.754;3.366;2022-10-16T12:38:53;2.70;;;1.10;;
20480;SDS011;10399;50.754;3.366;2022-10-16T12:43:53;6.60;;;1.25;;
20480;SDS011;10399;50.754;3.366;2022-10-16T12:46:32;6.57;;;1.27;;
20480;SDS011;10399;50.754;3.366;2022-10-16T12:51:47;5.15;;;0.73;;
20480;SDS011;10399;50.754;3.366;2022-10-16T12:54:31;4.60;;;0.55;;
20480;SDS011;10399;50.754;3.366;2022-10-16T13:08:56;2.38;;;0.60;;
20480;SDS011;10399;50.754;3.366;2022-10-16T13:14:22;1.58;;;0.60;;
20480;SDS011;10399;50.754;3.366;2022-10-16T13:16:59;4.25;;;1.20;;
20480;SDS011;10399;50.754;3.366;2022-10-16T13:19:31;4.20;;;1.48;;
20480;SDS011;10399;50.754;3.366;2022-10-16T13:24:55;4.28;;;1.60;;
20480;SDS011;10399;50.754;3.366;2022-10-16T13:27:56;6.50;;;1.15;;
20480;SDS011;10399;50.754;3.366;2022-10-16T13:33:16;5.15;;;1.38;;
20480;SDS011;10399;50.754;3.366;2022-10-16T13:35:54;6.07;;;2.15;;
20480;SDS011;10399;50.754;3.366;2022-10-16T13:38:24;10.00;;;2.05;;
20480;SDS011;10399;50.754;3.366;2022-10-16T13:40:54;5.72;;;2.30;;
20480;SDS011;10399;50.754;3.366;2022-10-16T13:46:15;5.80;;;2.22;;
20480;SDS011;10399;50.754;3.366;2022-10-16T13:48:44;2.60;;;1.40;;
20480;SDS011;10399;50.754;3.366;2022-10-16T13:51:22;5.65;;;1.35;;
20480;SDS011;10399;50.754;3.366;2022-10-16T13:53:49;3.60;;;1.30;;
20480;SDS011;10399;50.754;3.366;2022-10-16T13:56:18;7.55;;;1.00;;
20480;SDS011;10399;50.754;3.366;2022-10-16T13:58:57;2.95;;;1.23;;
20480;SDS011;10399;50.754;3.366;2022-10-16T14:01:27;6.93;;;1.20;;
20480;SDS011;10399;50.754;3.366;2022-10-16T14:04:04;4.65;;;1.08;;
20480;SDS011;10399;50.754;3.366;2022-10-16T14:06:34;7.25;;;1.33;;
20480;SDS011;10399;50.754;3.366;2022-10-16T14:09:07;6.15;;;1.20;;
20480;SDS011;10399;50.754;3.366;2022-10-16T14:11:46;5.55;;;1.13;;
20480;SDS011;10399;50.754;3.366;2022-10-16T14:14:18;7.35;;;1.40;;
20480;SDS011;10399;50.754;3.366;2022-10-16T14:16:46;5.05;;;1.10;;
20480;SDS011;10399;50.754;3.366;2022-10-16T14:19:15;4.32;;;1.30;;
20480;SDS011;10399;50.754;3.366;2022-10-16T14:21:44;5.57;;;1.40;;
20480;SDS011;10399;50.754;3.366;2022-10-16T14:24:22;4.30;;;1.35;;
20480;SDS011;10399;50.754;3.366;2022-10-16T14:26:51;8.23;;;1.35;;
20480;SDS011;10399;50.754;3.366;2022-10-16T14:29:21;5.93;;;1.33;;
20480;SDS011;10399;50.754;3.366;2022-10-16T14:31:56;8.57;;;1.15;;
20480;SDS011;10399;50.754;3.366;2022-10-16T14:34:38;6.90;;;1.42;;
20480;SDS011;10399;50.754;3.366;2022-10-16T14:37:09;7.68;;;1.65;;
20480;SDS011;10399;50.754;3.366;2022-10-16T14:39:48;4.55;;;1.50;;
20480;SDS011;10399;50.754;3.366;2022-10-16T14:42:16;5.90;;;1.58;;
20480;SDS011;10399;50.754;3.366;2022-10-16T14:44:46;6.88;;;1.67;;
20480;SDS011;10399;50.754;3.366;2022-10-16T14:47:14;8.85;;;1.75;;
20480;SDS011;10399;50.754;3.366;2022-10-16T14:49:48;7.70;;;2.10;;
20480;SDS011;10399;50.754;3.366;2022-10-16T14:52:15;5.30;;;1.70;;
20480;SDS011;10399;50.754;3.366;2022-10-16T14:54:42;5.18;;;1.40;;
20480;SDS011;10399;50.754;3.366;2022-10-16T14:57:15;5.57;;;1.45;;
20480;SDS011;10399;50.754;3.366;2022-10-16T14:59:48;4.88;;;1.30;;
20480;SDS011;10399;50.754;3.366;2022-10-16T15:02:27;4.93;;;1.70;;
20480;SDS011;10399;50.754;3.366;2022-10-16T15:05:21;15.40;;;2.67;;
20480;SDS011;10399;50.754;3.366;2022-10-16T15:07:50;6.68;;;1.58;;
20480;SDS011;10399;50.754;3.366;2022-10-16T15:10:21;6.10;;;1.63;;
20480;SDS011;10399;50.754;3.366;2022-10-16T15:12:50;8.13;;;1.42;;
20480;SDS011;10399;50.754;3.366;2022-10-16T15:17:50;5.72;;;1.30;;
20480;SDS011;10399;50.754;3.366;2022-10-16T15:20:23;9.38;;;2.55;;
20480;SDS011;10399;50.754;3.366;2022-10-16T15:22:51;2.80;;;1.25;;
20480;SDS011;10399;50.754;3.366;2022-10-16T15:28:08;6.35;;;1.30;;
20480;SDS011;10399;50.754;3.366;2022-10-16T15:30:36;5.85;;;1.38;;
20480;SDS011;10399;50.754;3.366;2022-10-16T15:33:04;4.32;;;1.13;;
20480;SDS011;10399;50.754;3.366;2022-10-16T15:35:36;2.70;;;1.00;;
20480;SDS011;10399;50.754;3.366;2022-10-16T15:38:02;1.98;;;1.00;;
20480;SDS011;10399;50.754;3.366;2022-10-16T15:40:29;3.67;;;1.35;;
20480;SDS011;10399;50.754;3.366;2022-10-16T15:42:56;4.10;;;1.20;;
20480;SDS011;10399;50.754;3.366;2022-10-16T15:45:23;8.70;;;2.83;;
20480;SDS011;10399;50.754;3.366;2022-10-16T15:47:50;7.68;;;3.80;;
20480;SDS011;10399;50.754;3.366;2022-10-16T15:50:17;7.65;;;3.20;;
20480;SDS011;10399;50.754;3.366;2022-10-16T15:52:45;7.43;;;2.28;;
20480;SDS011;10399;50.754;3.366;2022-10-16T15:55:12;5.93;;;2.75;;
20480;SDS011;10399;50.754;3.366;2022-10-16T15:57:41;4.95;;;2.85;;
20480;SDS011;10399;50.754;3.366;2022-10-16T16:00:11;3.03;;;1.60;;
20480;SDS011;10399;50.754;3.366;2022-10-16T16:02:41;6.93;;;2.80;;
20480;SDS011;10399;50.754;3.366;2022-10-16T16:05:09;3.60;;;1.42;;
20480;SDS011;10399;50.754;3.366;2022-10-16T16:07:38;3.60;;;1.52;;
20480;SDS011;10399;50.754;3.366;2022-10-16T16:10:07;2.38;;;1.30;;
20480;SDS011;10399;50.754;3.366;2022-10-16T16:12:36;2.70;;;0.90;;
20480;SDS011;10399;50.754;3.366;2022-10-16T16:15:04;3.65;;;0.95;;
20480;SDS011;10399;50.754;3.366;2022-10-16T16:17:33;4.43;;;1.27;;
20480;SDS011;10399;50.754;3.366;2022-10-16T16:20:01;3.33;;;1.23;;
20480;SDS011;10399;50.754;3.366;2022-10-16T16:22:29;3.50;;;1.50;;
20480;SDS011;10399;50.754;3.366;2022-10-16T16:24:56;3.65;;;1.42;;
20480;SDS011;10399;50.754;3.366;2022-10-16T16:27:23;3.65;;;1.60;;
20480;SDS011;10399;50.754;3.366;2022-10-16T16:29:56;4.82;;;1.55;;
20480;SDS011;10399;50.754;3.366;2022-10-16T16:32:23;2.28;;;1.30;;
20480;SDS011;10399;50.754;3.366;2022-10-16T16:34:50;1.55;;;1.00;;
20480;SDS011;10399;50.754;3.366;2022-10-16T16:37:17;3.63;;;1.35;;
20480;SDS011;10399;50.754;3.366;2022-10-16T16:39:44;5.93;;;1.20;;
20480;SDS011;10399;50.754;3.366;2022-10-16T16:42:11;6.22;;;1.80;;
20480;SDS011;10399;50.754;3.366;2022-10-16T16:44:38;7.30;;;1.35;;
20480;SDS011;10399;50.754;3.366;2022-10-16T16:47:05;5.10;;;1.55;;
20480;SDS011;10399;50.754;3.366;2022-10-16T16:49:32;3.42;;;1.95;;
20480;SDS011;10399;50.754;3.366;2022-10-16T16:51:59;7.25;;;2.40;;
20480;SDS011;10399;50.754;3.366;2022-10-16T16:54:26;4.95;;;2.35;;
20480;SDS011;10399;50.754;3.366;2022-10-16T16:56:53;6.05;;;2.70;;
20480;SDS011;10399;50.754;3.366;2022-10-16T16:59:20;6.78;;;2.65;;
20480;SDS011;10399;50.754;3.366;2022-10-16T17:01:48;7.45;;;2.70;;
20480;SDS011;10399;50.754;3.366;2022-10-16T17:04:21;5.03;;;2.15;;
20480;SDS011;10399;50.754;3.366;2022-10-16T17:06:49;8.52;;;2.25;;
20480;SDS011;10399;50.754;3.366;2022-10-16T17:09:16;6.13;;;3.17;;
20480;SDS011;10399;50.754;3.366;2022-10-16T17:11:42;3.97;;;2.63;;
20480;SDS011;10399;50.754;3.366;2022-10-16T17:14:11;7.78;;;4.13;;
20480;SDS011;10399;50.754;3.366;2022-10-16T17:16:38;6.60;;;2.17;;
20480;SDS011;10399;50.754;3.366;2022-10-16T17:19:06;7.60;;;2.30;;
20480;SDS011;10399;50.754;3.366;2022-10-16T17:21:36;11.13;;;2.90;;
20480;SDS011;10399;50.754;3.366;2022-10-16T17:24:03;5.43;;;2.08;;
20480;SDS011;10399;50.754;3.366;2022-10-16T17:26:31;9.27;;;3.03;;
20480;SDS011;10399;50.754;3.366;2022-10-16T17:28:59;6.40;;;2.33;;